sensor_id;sensor_type;location;lat;lon;timestamp;temperature;humidity
14349;DHT22;7258;50.376;8.742;2022-09-06T00:00:26;18.00;97.60
14349;DHT22;7258;50.376;8.742;2022-09-06T00:02:32;18.00;97.70
14349;DHT22;7258;50.376;8.742;2022-09-06T00:04:35;18.00;97.70
14349;DHT22;7258;50.376;8.742;2022-09-06T00:06:38;18.00;97.80
14349;DHT22;7258;50.376;8.742;2022-09-06T00:08:42;18.00;97.70
14349;DHT22;7258;50.376;8.742;2022-09-06T00:10:45;18.00;97.70
14349;DHT22;7258;50.376;8.742;2022-09-06T00:12:48;18.00;97.70
14349;DHT22;7258;50.376;8.742;2022-09-06T00:14:51;17.90;97.60
14349;DHT22;7258;50.376;8.742;2022-09-06T00:16:54;17.90;97.70
14349;DHT22;7258;50.376;8.742;2022-09-06T00:18:58;17.90;97.80
14349;DHT22;7258;50.376;8.742;2022-09-06T00:21:02;17.90;97.90
14349;DHT22;7258;50.376;8.742;2022-09-06T00:23:05;17.90;98.00
14349;DHT22;7258;50.376;8.742;2022-09-06T00:25:08;17.90;97.90
14349;DHT22;7258;50.376;8.742;2022-09-06T00:27:11;17.90;97.90
14349;DHT22;7258;50.376;8.742;2022-09-06T00:29:15;17.90;97.90
14349;DHT22;7258;50.376;8.742;2022-09-06T00:31:19;17.90;98.40
14349;DHT22;7258;50.376;8.742;2022-09-06T00:33:22;17.90;98.10
14349;DHT22;7258;50.376;8.742;2022-09-06T00:35:27;17.90;98.00
14349;DHT22;7258;50.376;8.742;2022-09-06T00:37:30;17.90;98.00
14349;DHT22;7258;50.376;8.742;2022-09-06T00:39:33;17.90;98.00
14349;DHT22;7258;50.376;8.742;2022-09-06T00:41:36;17.90;98.10
14349;DHT22;7258;50.376;8.742;2022-09-06T00:43:39;17.80;98.40
14349;DHT22;7258;50.376;8.742;2022-09-06T00:45:42;17.80;98.20
14349;DHT22;7258;50.376;8.742;2022-09-06T00:47:45;17.80;98.20
14349;DHT22;7258;50.376;8.742;2022-09-06T00:49:50;17.80;98.30
14349;DHT22;7258;50.376;8.742;2022-09-06T00:51:58;17.80;98.40
14349;DHT22;7258;50.376;8.742;2022-09-06T00:54:02;17.70;98.40
14349;DHT22;7258;50.376;8.742;2022-09-06T00:56:06;17.70;98.50
14349;DHT22;7258;50.376;8.742;2022-09-06T00:58:09;17.70;98.50
14349;DHT22;7258;50.376;8.742;2022-09-06T01:00:13;17.70;98.60
14349;DHT22;7258;50.376;8.742;2022-09-06T01:02:16;17.70;98.70
14349;DHT22;7258;50.376;8.742;2022-09-06T01:04:20;17.60;98.70
14349;DHT22;7258;50.376;8.742;2022-09-06T01:06:28;17.60;98.80
14349;DHT22;7258;50.376;8.742;2022-09-06T01:08:47;17.60;98.90
14349;DHT22;7258;50.376;8.742;2022-09-06T01:11:21;17.60;99.10
14349;DHT22;7258;50.376;8.742;2022-09-06T01:13:32;17.50;99.10
14349;DHT22;7258;50.376;8.742;2022-09-06T01:15:44;17.50;99.20
14349;DHT22;7258;50.376;8.742;2022-09-06T01:17:58;17.50;99.20
14349;DHT22;7258;50.376;8.742;2022-09-06T01:20:33;17.50;99.20
14349;DHT22;7258;50.376;8.742;2022-09-06T01:23:16;17.50;99.30
14349;DHT22;7258;50.376;8.742;2022-09-06T01:25:34;17.50;99.30
14349;DHT22;7258;50.376;8.742;2022-09-06T01:28:23;17.50;99.40
14349;DHT22;7258;50.376;8.742;2022-09-06T01:30:27;17.50;99.30
14349;DHT22;7258;50.376;8.742;2022-09-06T01:32:38;17.50;99.30
14349;DHT22;7258;50.376;8.742;2022-09-06T01:34:46;17.50;99.40
14349;DHT22;7258;50.376;8.742;2022-09-06T01:36:55;17.50;99.40
14349;DHT22;7258;50.376;8.742;2022-09-06T01:39:18;17.50;99.40
14349;DHT22;7258;50.376;8.742;2022-09-06T01:41:23;17.60;99.50
14349;DHT22;7258;50.376;8.742;2022-09-06T01:43:29;17.60;99.50
14349;DHT22;7258;50.376;8.742;2022-09-06T01:45:40;17.60;99.40
14349;DHT22;7258;50.376;8.742;2022-09-06T01:47:54;17.60;99.40
14349;DHT22;7258;50.376;8.742;2022-09-06T01:50:24;17.70;99.50
14349;DHT22;7258;50.376;8.742;2022-09-06T01:52:33;17.70;99.40
14349;DHT22;7258;50.376;8.742;2022-09-06T01:54:55;17.70;99.40
14349;DHT22;7258;50.376;8.742;2022-09-06T01:57:14;17.70;99.50
14349;DHT22;7258;50.376;8.742;2022-09-06T01:59:37;17.70;99.50
14349;DHT22;7258;50.376;8.742;2022-09-06T02:01:50;17.60;99.60
14349;DHT22;7258;50.376;8.742;2022-09-06T02:04:02;17.70;99.60
14349;DHT22;7258;50.376;8.742;2022-09-06T02:06:08;17.60;99.70
14349;DHT22;7258;50.376;8.742;2022-09-06T02:08:17;17.60;99.80
14349;DHT22;7258;50.376;8.742;2022-09-06T02:10:24;17.60;99.80
14349;DHT22;7258;50.376;8.742;2022-09-06T02:12:31;17.60;99.80
14349;DHT22;7258;50.376;8.742;2022-09-06T02:14:38;17.60;99.80
14349;DHT22;7258;50.376;8.742;2022-09-06T02:16:44;17.60;99.80
14349;DHT22;7258;50.376;8.742;2022-09-06T02:18:57;17.60;99.80
14349;DHT22;7258;50.376;8.742;2022-09-06T02:21:02;17.60;99.80
14349;DHT22;7258;50.376;8.742;2022-09-06T02:23:06;17.60;99.80
14349;DHT22;7258;50.376;8.742;2022-09-06T02:25:13;17.70;99.80
14349;DHT22;7258;50.376;8.742;2022-09-06T02:27:18;17.70;99.70
14349;DHT22;7258;50.376;8.742;2022-09-06T02:29:21;17.80;99.60
14349;DHT22;7258;50.376;8.742;2022-09-06T02:31:30;18.00;99.50
14349;DHT22;7258;50.376;8.742;2022-09-06T02:33:34;18.40;98.50
14349;DHT22;7258;50.376;8.742;2022-09-06T02:35:42;18.60;98.00
14349;DHT22;7258;50.376;8.742;2022-09-06T02:37:46;18.90;97.60
14349;DHT22;7258;50.376;8.742;2022-09-06T02:39:49;19.30;96.90
14349;DHT22;7258;50.376;8.742;2022-09-06T02:41:52;19.50;96.40
14349;DHT22;7258;50.376;8.742;2022-09-06T02:43:55;19.80;95.80
14349;DHT22;7258;50.376;8.742;2022-09-06T02:45:58;20.00;95.40
14349;DHT22;7258;50.376;8.742;2022-09-06T02:48:03;20.20;95.00
14349;DHT22;7258;50.376;8.742;2022-09-06T02:50:07;20.30;94.70
14349;DHT22;7258;50.376;8.742;2022-09-06T02:52:10;20.50;94.60
14349;DHT22;7258;50.376;8.742;2022-09-06T02:54:13;20.50;94.30
14349;DHT22;7258;50.376;8.742;2022-09-06T02:56:16;20.50;94.30
14349;DHT22;7258;50.376;8.742;2022-09-06T02:58:22;20.60;94.30
14349;DHT22;7258;50.376;8.742;2022-09-06T03:00:26;20.50;94.20
14349;DHT22;7258;50.376;8.742;2022-09-06T03:02:29;20.50;94.60
14349;DHT22;7258;50.376;8.742;2022-09-06T03:04:34;20.50;94.30
14349;DHT22;7258;50.376;8.742;2022-09-06T03:06:37;20.40;94.30
14349;DHT22;7258;50.376;8.742;2022-09-06T03:08:40;20.30;94.40
14349;DHT22;7258;50.376;8.742;2022-09-06T03:10:47;20.30;94.50
14349;DHT22;7258;50.376;8.742;2022-09-06T03:12:51;20.20;94.60
14349;DHT22;7258;50.376;8.742;2022-09-06T03:14:54;20.20;94.70
14349;DHT22;7258;50.376;8.742;2022-09-06T03:16:57;20.20;94.70
14349;DHT22;7258;50.376;8.742;2022-09-06T03:19:00;20.10;94.80
14349;DHT22;7258;50.376;8.742;2022-09-06T03:21:04;20.20;94.90
14349;DHT22;7258;50.376;8.742;2022-09-06T03:23:07;20.20;95.00
14349;DHT22;7258;50.376;8.742;2022-09-06T03:25:11;20.10;95.00
14349;DHT22;7258;50.376;8.742;2022-09-06T03:27:14;20.10;95.30
14349;DHT22;7258;50.376;8.742;2022-09-06T03:29:17;20.00;95.30
14349;DHT22;7258;50.376;8.742;2022-09-06T03:31:21;20.00;95.40
14349;DHT22;7258;50.376;8.742;2022-09-06T03:33:24;20.00;95.40
14349;DHT22;7258;50.376;8.742;2022-09-06T03:35:27;19.90;95.50
14349;DHT22;7258;50.376;8.742;2022-09-06T03:37:31;19.80;95.90
14349;DHT22;7258;50.376;8.742;2022-09-06T03:39:34;19.80;95.70
14349;DHT22;7258;50.376;8.742;2022-09-06T03:41:37;19.80;95.80
14349;DHT22;7258;50.376;8.742;2022-09-06T03:43:40;19.70;95.90
14349;DHT22;7258;50.376;8.742;2022-09-06T03:45:44;19.70;96.00
14349;DHT22;7258;50.376;8.742;2022-09-06T03:47:47;19.70;96.20
14349;DHT22;7258;50.376;8.742;2022-09-06T03:49:50;19.70;96.10
14349;DHT22;7258;50.376;8.742;2022-09-06T03:51:53;19.70;96.10
14349;DHT22;7258;50.376;8.742;2022-09-06T03:53:58;19.70;96.10
14349;DHT22;7258;50.376;8.742;2022-09-06T03:56:01;19.70;96.10
14349;DHT22;7258;50.376;8.742;2022-09-06T03:58:05;19.70;96.20
14349;DHT22;7258;50.376;8.742;2022-09-06T04:00:09;19.70;96.50
14349;DHT22;7258;50.376;8.742;2022-09-06T04:02:12;19.70;96.80
14349;DHT22;7258;50.376;8.742;2022-09-06T04:04:15;19.70;97.30
14349;DHT22;7258;50.376;8.742;2022-09-06T04:06:18;19.60;97.70
14349;DHT22;7258;50.376;8.742;2022-09-06T04:08:21;19.50;98.10
14349;DHT22;7258;50.376;8.742;2022-09-06T04:10:26;19.40;99.10
14349;DHT22;7258;50.376;8.742;2022-09-06T04:12:29;19.30;99.80
14349;DHT22;7258;50.376;8.742;2022-09-06T04:14:32;19.30;99.90
14349;DHT22;7258;50.376;8.742;2022-09-06T04:16:35;19.20;99.90
14349;DHT22;7258;50.376;8.742;2022-09-06T04:18:38;19.10;99.90
14349;DHT22;7258;50.376;8.742;2022-09-06T04:20:41;19.00;99.90
14349;DHT22;7258;50.376;8.742;2022-09-06T04:22:44;19.00;99.90
14349;DHT22;7258;50.376;8.742;2022-09-06T04:24:47;18.90;99.90
14349;DHT22;7258;50.376;8.742;2022-09-06T04:26:52;18.90;99.90
14349;DHT22;7258;50.376;8.742;2022-09-06T04:28:55;18.80;99.90
14349;DHT22;7258;50.376;8.742;2022-09-06T04:31:00;18.80;99.90
14349;DHT22;7258;50.376;8.742;2022-09-06T04:33:05;18.80;99.90
14349;DHT22;7258;50.376;8.742;2022-09-06T04:35:08;18.80;99.90
14349;DHT22;7258;50.376;8.742;2022-09-06T04:37:11;18.70;99.90
14349;DHT22;7258;50.376;8.742;2022-09-06T04:39:18;18.80;99.90
14349;DHT22;7258;50.376;8.742;2022-09-06T04:41:21;18.70;99.90
14349;DHT22;7258;50.376;8.742;2022-09-06T04:43:25;18.70;99.90
14349;DHT22;7258;50.376;8.742;2022-09-06T04:45:28;18.70;99.90
14349;DHT22;7258;50.376;8.742;2022-09-06T04:47:31;18.60;99.90
14349;DHT22;7258;50.376;8.742;2022-09-06T04:49:34;18.60;99.90
14349;DHT22;7258;50.376;8.742;2022-09-06T04:51:37;18.50;99.90
14349;DHT22;7258;50.376;8.742;2022-09-06T04:53:40;18.50;99.90
14349;DHT22;7258;50.376;8.742;2022-09-06T04:55:43;18.50;99.90
14349;DHT22;7258;50.376;8.742;2022-09-06T04:57:46;18.50;99.90
14349;DHT22;7258;50.376;8.742;2022-09-06T04:59:53;18.40;99.90
14349;DHT22;7258;50.376;8.742;2022-09-06T05:01:56;18.40;99.90
14349;DHT22;7258;50.376;8.742;2022-09-06T05:03:59;18.40;99.90
14349;DHT22;7258;50.376;8.742;2022-09-06T05:06:06;18.40;99.90
14349;DHT22;7258;50.376;8.742;2022-09-06T05:08:09;18.40;99.90
14349;DHT22;7258;50.376;8.742;2022-09-06T05:10:13;18.50;99.90
14349;DHT22;7258;50.376;8.742;2022-09-06T05:12:16;18.50;99.90
14349;DHT22;7258;50.376;8.742;2022-09-06T05:14:19;18.50;99.90
14349;DHT22;7258;50.376;8.742;2022-09-06T05:16:23;18.60;99.90
14349;DHT22;7258;50.376;8.742;2022-09-06T05:18:27;18.60;99.90
14349;DHT22;7258;50.376;8.742;2022-09-06T05:20:30;18.60;99.90
14349;DHT22;7258;50.376;8.742;2022-09-06T05:22:33;18.60;99.90
14349;DHT22;7258;50.376;8.742;2022-09-06T05:24:36;18.60;99.90
14349;DHT22;7258;50.376;8.742;2022-09-06T05:26:39;18.60;99.90
14349;DHT22;7258;50.376;8.742;2022-09-06T05:28:42;18.70;99.90
14349;DHT22;7258;50.376;8.742;2022-09-06T05:30:45;18.70;99.90
14349;DHT22;7258;50.376;8.742;2022-09-06T05:32:51;18.70;99.90
14349;DHT22;7258;50.376;8.742;2022-09-06T05:34:53;18.70;99.90
14349;DHT22;7258;50.376;8.742;2022-09-06T05:36:56;18.70;99.90
14349;DHT22;7258;50.376;8.742;2022-09-06T05:38:59;18.80;99.90
14349;DHT22;7258;50.376;8.742;2022-09-06T05:41:02;18.80;99.90
14349;DHT22;7258;50.376;8.742;2022-09-06T05:43:05;18.90;99.90
14349;DHT22;7258;50.376;8.742;2022-09-06T05:45:08;18.90;99.90
14349;DHT22;7258;50.376;8.742;2022-09-06T05:47:11;19.00;99.90
14349;DHT22;7258;50.376;8.742;2022-09-06T05:49:15;19.00;99.90
14349;DHT22;7258;50.376;8.742;2022-09-06T05:51:18;19.00;99.90
14349;DHT22;7258;50.376;8.742;2022-09-06T05:53:21;19.10;99.90
14349;DHT22;7258;50.376;8.742;2022-09-06T05:55:24;19.10;99.90
14349;DHT22;7258;50.376;8.742;2022-09-06T05:57:27;19.10;99.90
14349;DHT22;7258;50.376;8.742;2022-09-06T05:59:30;19.10;99.90
14349;DHT22;7258;50.376;8.742;2022-09-06T06:01:33;19.10;99.90
14349;DHT22;7258;50.376;8.742;2022-09-06T06:03:36;19.00;99.90
14349;DHT22;7258;50.376;8.742;2022-09-06T06:05:45;19.00;99.90
14349;DHT22;7258;50.376;8.742;2022-09-06T06:07:48;19.00;99.90
14349;DHT22;7258;50.376;8.742;2022-09-06T06:09:50;19.10;99.90
14349;DHT22;7258;50.376;8.742;2022-09-06T06:11:53;19.10;99.90
14349;DHT22;7258;50.376;8.742;2022-09-06T06:13:56;19.20;99.90
14349;DHT22;7258;50.376;8.742;2022-09-06T06:16:00;19.30;99.90
14349;DHT22;7258;50.376;8.742;2022-09-06T06:18:04;19.40;99.90
14349;DHT22;7258;50.376;8.742;2022-09-06T06:20:08;19.50;99.90
14349;DHT22;7258;50.376;8.742;2022-09-06T06:22:12;19.50;99.90
14349;DHT22;7258;50.376;8.742;2022-09-06T06:24:15;19.60;99.90
14349;DHT22;7258;50.376;8.742;2022-09-06T06:26:19;19.70;99.90
14349;DHT22;7258;50.376;8.742;2022-09-06T06:28:22;19.80;99.90
14349;DHT22;7258;50.376;8.742;2022-09-06T06:30:25;19.90;99.90
14349;DHT22;7258;50.376;8.742;2022-09-06T06:32:32;20.10;99.90
14349;DHT22;7258;50.376;8.742;2022-09-06T06:34:35;20.10;99.90
14349;DHT22;7258;50.376;8.742;2022-09-06T06:36:39;20.20;99.90
14349;DHT22;7258;50.376;8.742;2022-09-06T06:38:51;20.30;99.90
14349;DHT22;7258;50.376;8.742;2022-09-06T06:40:56;20.50;99.90
14349;DHT22;7258;50.376;8.742;2022-09-06T06:43:03;20.60;99.90
14349;DHT22;7258;50.376;8.742;2022-09-06T06:45:07;20.70;99.90
14349;DHT22;7258;50.376;8.742;2022-09-06T06:47:13;20.80;99.90
14349;DHT22;7258;50.376;8.742;2022-09-06T06:49:22;21.00;99.90
14349;DHT22;7258;50.376;8.742;2022-09-06T06:51:27;21.10;99.50
14349;DHT22;7258;50.376;8.742;2022-09-06T06:53:30;21.30;99.10
14349;DHT22;7258;50.376;8.742;2022-09-06T06:55:35;21.40;98.50
14349;DHT22;7258;50.376;8.742;2022-09-06T06:57:44;21.50;97.90
14349;DHT22;7258;50.376;8.742;2022-09-06T06:59:48;21.70;97.40
14349;DHT22;7258;50.376;8.742;2022-09-06T07:01:54;21.80;97.10
14349;DHT22;7258;50.376;8.742;2022-09-06T07:04:06;21.90;96.60
14349;DHT22;7258;50.376;8.742;2022-09-06T07:06:11;22.00;96.30
14349;DHT22;7258;50.376;8.742;2022-09-06T07:08:14;22.00;95.60
14349;DHT22;7258;50.376;8.742;2022-09-06T07:10:17;22.10;95.50
14349;DHT22;7258;50.376;8.742;2022-09-06T07:12:37;22.10;95.20
14349;DHT22;7258;50.376;8.742;2022-09-06T07:14:46;22.20;94.90
14349;DHT22;7258;50.376;8.742;2022-09-06T07:16:51;22.30;94.40
14349;DHT22;7258;50.376;8.742;2022-09-06T07:19:02;22.40;94.20
14349;DHT22;7258;50.376;8.742;2022-09-06T07:21:15;22.40;93.90
14349;DHT22;7258;50.376;8.742;2022-09-06T07:23:38;22.50;93.90
14349;DHT22;7258;50.376;8.742;2022-09-06T07:26:01;22.60;93.90
14349;DHT22;7258;50.376;8.742;2022-09-06T07:28:06;22.60;93.90
14349;DHT22;7258;50.376;8.742;2022-09-06T07:30:10;22.70;93.80
14349;DHT22;7258;50.376;8.742;2022-09-06T07:32:16;22.80;93.80
14349;DHT22;7258;50.376;8.742;2022-09-06T07:34:19;22.90;93.80
14349;DHT22;7258;50.376;8.742;2022-09-06T07:36:25;23.10;93.70
14349;DHT22;7258;50.376;8.742;2022-09-06T07:38:29;23.20;93.70
14349;DHT22;7258;50.376;8.742;2022-09-06T07:40:35;23.30;93.20
14349;DHT22;7258;50.376;8.742;2022-09-06T07:42:41;23.40;93.00
14349;DHT22;7258;50.376;8.742;2022-09-06T07:44:46;23.50;92.80
14349;DHT22;7258;50.376;8.742;2022-09-06T07:46:52;23.60;92.70
14349;DHT22;7258;50.376;8.742;2022-09-06T07:48:58;23.60;92.60
14349;DHT22;7258;50.376;8.742;2022-09-06T07:51:03;23.70;92.60
14349;DHT22;7258;50.376;8.742;2022-09-06T07:53:24;23.80;92.50
14349;DHT22;7258;50.376;8.742;2022-09-06T07:55:32;23.90;92.30
14349;DHT22;7258;50.376;8.742;2022-09-06T07:57:35;23.90;92.20
14349;DHT22;7258;50.376;8.742;2022-09-06T07:59:38;24.00;92.00
14349;DHT22;7258;50.376;8.742;2022-09-06T08:01:45;24.20;91.90
14349;DHT22;7258;50.376;8.742;2022-09-06T08:03:48;24.20;91.70
14349;DHT22;7258;50.376;8.742;2022-09-06T08:05:51;24.20;91.70
14349;DHT22;7258;50.376;8.742;2022-09-06T08:08:11;24.20;91.50
14349;DHT22;7258;50.376;8.742;2022-09-06T08:10:34;24.30;91.30
14349;DHT22;7258;50.376;8.742;2022-09-06T08:12:39;24.30;91.20
14349;DHT22;7258;50.376;8.742;2022-09-06T08:14:42;24.40;91.10
14349;DHT22;7258;50.376;8.742;2022-09-06T08:16:46;24.50;90.90
14349;DHT22;7258;50.376;8.742;2022-09-06T08:18:56;24.50;90.60
14349;DHT22;7258;50.376;8.742;2022-09-06T08:21:08;24.50;90.60
14349;DHT22;7258;50.376;8.742;2022-09-06T08:23:13;24.60;90.50
14349;DHT22;7258;50.376;8.742;2022-09-06T08:25:16;24.70;90.40
14349;DHT22;7258;50.376;8.742;2022-09-06T08:27:19;24.70;90.30
14349;DHT22;7258;50.376;8.742;2022-09-06T08:29:25;24.70;90.30
14349;DHT22;7258;50.376;8.742;2022-09-06T08:31:29;24.80;90.30
14349;DHT22;7258;50.376;8.742;2022-09-06T08:33:37;24.70;90.20
14349;DHT22;7258;50.376;8.742;2022-09-06T08:35:40;24.80;90.30
14349;DHT22;7258;50.376;8.742;2022-09-06T08:37:46;24.80;90.50
14349;DHT22;7258;50.376;8.742;2022-09-06T08:39:52;24.90;90.10
14349;DHT22;7258;50.376;8.742;2022-09-06T08:41:59;24.90;90.20
14349;DHT22;7258;50.376;8.742;2022-09-06T08:44:06;25.10;89.80
14349;DHT22;7258;50.376;8.742;2022-09-06T08:46:35;25.20;90.10
14349;DHT22;7258;50.376;8.742;2022-09-06T08:48:44;25.30;88.70
14349;DHT22;7258;50.376;8.742;2022-09-06T08:50:57;25.50;88.50
14349;DHT22;7258;50.376;8.742;2022-09-06T08:53:10;25.50;87.60
14349;DHT22;7258;50.376;8.742;2022-09-06T08:55:29;25.50;87.60
14349;DHT22;7258;50.376;8.742;2022-09-06T08:57:54;25.50;88.00
14349;DHT22;7258;50.376;8.742;2022-09-06T09:00:02;25.60;88.20
14349;DHT22;7258;50.376;8.742;2022-09-06T09:02:11;25.60;87.30
14349;DHT22;7258;50.376;8.742;2022-09-06T09:04:20;25.70;87.30
14349;DHT22;7258;50.376;8.742;2022-09-06T09:06:31;25.70;87.40
14349;DHT22;7258;50.376;8.742;2022-09-06T09:08:46;25.90;87.30
14349;DHT22;7258;50.376;8.742;2022-09-06T09:10:55;26.00;86.60
14349;DHT22;7258;50.376;8.742;2022-09-06T09:13:01;26.10;86.00
14349;DHT22;7258;50.376;8.742;2022-09-06T09:15:09;26.10;85.80
14349;DHT22;7258;50.376;8.742;2022-09-06T09:17:16;26.10;85.30
14349;DHT22;7258;50.376;8.742;2022-09-06T09:19:22;26.20;85.00
14349;DHT22;7258;50.376;8.742;2022-09-06T09:21:27;26.30;85.20
14349;DHT22;7258;50.376;8.742;2022-09-06T09:23:32;26.40;85.20
14349;DHT22;7258;50.376;8.742;2022-09-06T09:25:37;26.30;84.60
14349;DHT22;7258;50.376;8.742;2022-09-06T09:27:43;26.30;84.20
14349;DHT22;7258;50.376;8.742;2022-09-06T09:29:57;26.30;84.10
14349;DHT22;7258;50.376;8.742;2022-09-06T09:32:29;26.40;83.70
14349;DHT22;7258;50.376;8.742;2022-09-06T09:34:36;26.50;83.30
14349;DHT22;7258;50.376;8.742;2022-09-06T09:36:40;26.60;83.30
14349;DHT22;7258;50.376;8.742;2022-09-06T09:39:12;26.70;83.40
14349;DHT22;7258;50.376;8.742;2022-09-06T09:41:24;26.70;83.70
14349;DHT22;7258;50.376;8.742;2022-09-06T09:43:29;26.70;83.50
14349;DHT22;7258;50.376;8.742;2022-09-06T09:45:33;26.70;83.20
14349;DHT22;7258;50.376;8.742;2022-09-06T09:47:36;26.70;82.80
14349;DHT22;7258;50.376;8.742;2022-09-06T09:49:40;26.70;82.90
14349;DHT22;7258;50.376;8.742;2022-09-06T09:51:44;26.80;82.80
14349;DHT22;7258;50.376;8.742;2022-09-06T09:53:52;26.90;83.00
14349;DHT22;7258;50.376;8.742;2022-09-06T09:55:56;27.00;82.70
14349;DHT22;7258;50.376;8.742;2022-09-06T09:57:59;27.00;82.40
14349;DHT22;7258;50.376;8.742;2022-09-06T10:00:03;27.10;82.60
14349;DHT22;7258;50.376;8.742;2022-09-06T10:02:20;27.20;82.60
14349;DHT22;7258;50.376;8.742;2022-09-06T10:04:31;27.30;83.50
14349;DHT22;7258;50.376;8.742;2022-09-06T10:06:52;27.30;82.80
14349;DHT22;7258;50.376;8.742;2022-09-06T10:09:13;27.20;83.30
14349;DHT22;7258;50.376;8.742;2022-09-06T10:11:38;27.20;82.90
14349;DHT22;7258;50.376;8.742;2022-09-06T10:13:41;27.20;83.80
14349;DHT22;7258;50.376;8.742;2022-09-06T10:15:45;27.30;83.10
14349;DHT22;7258;50.376;8.742;2022-09-06T10:17:52;27.20;83.20
14349;DHT22;7258;50.376;8.742;2022-09-06T10:19:55;27.30;82.80
14349;DHT22;7258;50.376;8.742;2022-09-06T10:22:19;27.40;82.60
14349;DHT22;7258;50.376;8.742;2022-09-06T10:24:27;27.60;82.50
14349;DHT22;7258;50.376;8.742;2022-09-06T10:26:35;27.60;82.10
14349;DHT22;7258;50.376;8.742;2022-09-06T10:28:42;27.70;82.50
14349;DHT22;7258;50.376;8.742;2022-09-06T10:33:32;27.80;82.30
14349;DHT22;7258;50.376;8.742;2022-09-06T10:35:37;27.90;81.90
14349;DHT22;7258;50.376;8.742;2022-09-06T10:37:48;28.00;82.10
14349;DHT22;7258;50.376;8.742;2022-09-06T10:39:55;28.10;81.80
14349;DHT22;7258;50.376;8.742;2022-09-06T10:42:08;28.10;82.00
14349;DHT22;7258;50.376;8.742;2022-09-06T10:44:22;28.30;81.30
14349;DHT22;7258;50.376;8.742;2022-09-06T10:46:33;28.10;81.30
14349;DHT22;7258;50.376;8.742;2022-09-06T10:48:40;28.20;81.90
14349;DHT22;7258;50.376;8.742;2022-09-06T10:50:48;28.30;81.60
14349;DHT22;7258;50.376;8.742;2022-09-06T10:52:55;28.30;80.50
14349;DHT22;7258;50.376;8.742;2022-09-06T10:55:00;28.40;80.70
14349;DHT22;7258;50.376;8.742;2022-09-06T10:57:08;28.50;80.30
14349;DHT22;7258;50.376;8.742;2022-09-06T10:59:36;28.60;80.50
14349;DHT22;7258;50.376;8.742;2022-09-06T11:01:43;28.60;80.00
14349;DHT22;7258;50.376;8.742;2022-09-06T11:03:50;28.60;79.60
14349;DHT22;7258;50.376;8.742;2022-09-06T11:05:58;28.60;79.70
14349;DHT22;7258;50.376;8.742;2022-09-06T11:08:09;28.80;79.60
14349;DHT22;7258;50.376;8.742;2022-09-06T11:10:36;28.90;79.00
14349;DHT22;7258;50.376;8.742;2022-09-06T11:12:44;29.00;78.40
14349;DHT22;7258;50.376;8.742;2022-09-06T11:14:50;29.00;78.90
14349;DHT22;7258;50.376;8.742;2022-09-06T11:16:56;29.10;78.20
14349;DHT22;7258;50.376;8.742;2022-09-06T11:19:04;29.10;78.10
14349;DHT22;7258;50.376;8.742;2022-09-06T11:21:30;29.10;78.30
14349;DHT22;7258;50.376;8.742;2022-09-06T11:23:46;29.30;77.70
14349;DHT22;7258;50.376;8.742;2022-09-06T11:26:08;29.20;78.10
14349;DHT22;7258;50.376;8.742;2022-09-06T11:28:18;29.20;77.50
14349;DHT22;7258;50.376;8.742;2022-09-06T11:30:24;29.30;77.20
14349;DHT22;7258;50.376;8.742;2022-09-06T11:32:35;29.40;77.10
14349;DHT22;7258;50.376;8.742;2022-09-06T11:34:39;29.40;76.60
14349;DHT22;7258;50.376;8.742;2022-09-06T11:36:47;29.50;76.50
14349;DHT22;7258;50.376;8.742;2022-09-06T11:38:56;29.50;76.70
14349;DHT22;7258;50.376;8.742;2022-09-06T11:41:01;29.40;77.30
14349;DHT22;7258;50.376;8.742;2022-09-06T11:43:16;29.50;76.90
14349;DHT22;7258;50.376;8.742;2022-09-06T11:45:21;29.60;76.50
14349;DHT22;7258;50.376;8.742;2022-09-06T11:47:41;29.60;76.50
14349;DHT22;7258;50.376;8.742;2022-09-06T11:49:44;29.70;76.40
14349;DHT22;7258;50.376;8.742;2022-09-06T11:51:47;29.70;76.60
14349;DHT22;7258;50.376;8.742;2022-09-06T11:54:17;29.70;76.30
14349;DHT22;7258;50.376;8.742;2022-09-06T11:56:27;29.70;75.80
14349;DHT22;7258;50.376;8.742;2022-09-06T11:58:41;29.80;75.80
14349;DHT22;7258;50.376;8.742;2022-09-06T12:01:31;29.80;76.80
14349;DHT22;7258;50.376;8.742;2022-09-06T12:06:15;29.90;75.20
14349;DHT22;7258;50.376;8.742;2022-09-06T12:08:30;30.10;75.40
14349;DHT22;7258;50.376;8.742;2022-09-06T12:10:49;30.10;75.00
14349;DHT22;7258;50.376;8.742;2022-09-06T12:12:53;30.10;74.70
14349;DHT22;7258;50.376;8.742;2022-09-06T12:14:56;30.10;75.00
14349;DHT22;7258;50.376;8.742;2022-09-06T12:17:26;30.10;74.80
14349;DHT22;7258;50.376;8.742;2022-09-06T12:19:42;30.10;74.80
14349;DHT22;7258;50.376;8.742;2022-09-06T12:21:45;30.10;74.80
14349;DHT22;7258;50.376;8.742;2022-09-06T12:23:52;30.10;74.80
14349;DHT22;7258;50.376;8.742;2022-09-06T12:25:56;30.10;74.60
14349;DHT22;7258;50.376;8.742;2022-09-06T12:28:00;30.10;74.50
14349;DHT22;7258;50.376;8.742;2022-09-06T12:30:06;30.20;74.60
14349;DHT22;7258;50.376;8.742;2022-09-06T12:32:10;30.20;74.30
14349;DHT22;7258;50.376;8.742;2022-09-06T12:34:18;30.20;74.80
14349;DHT22;7258;50.376;8.742;2022-09-06T12:36:25;30.20;74.40
14349;DHT22;7258;50.376;8.742;2022-09-06T12:38:30;30.20;74.10
14349;DHT22;7258;50.376;8.742;2022-09-06T12:40:36;30.20;74.20
14349;DHT22;7258;50.376;8.742;2022-09-06T12:42:42;30.20;73.30
14349;DHT22;7258;50.376;8.742;2022-09-06T12:44:50;30.30;73.50
14349;DHT22;7258;50.376;8.742;2022-09-06T12:46:53;30.30;73.10
14349;DHT22;7258;50.376;8.742;2022-09-06T12:49:02;30.40;73.00
14349;DHT22;7258;50.376;8.742;2022-09-06T12:51:07;30.50;73.00
14349;DHT22;7258;50.376;8.742;2022-09-06T12:53:20;30.60;72.60
14349;DHT22;7258;50.376;8.742;2022-09-06T12:55:28;30.70;72.40
14349;DHT22;7258;50.376;8.742;2022-09-06T12:57:32;30.80;72.00
14349;DHT22;7258;50.376;8.742;2022-09-06T12:59:35;30.80;71.50
14349;DHT22;7258;50.376;8.742;2022-09-06T13:01:38;30.80;71.40
14349;DHT22;7258;50.376;8.742;2022-09-06T13:03:44;30.90;71.60
14349;DHT22;7258;50.376;8.742;2022-09-06T13:05:51;31.00;71.30
14349;DHT22;7258;50.376;8.742;2022-09-06T13:07:58;31.10;71.10
14349;DHT22;7258;50.376;8.742;2022-09-06T13:10:03;31.10;70.80
14349;DHT22;7258;50.376;8.742;2022-09-06T13:12:12;31.10;70.60
14349;DHT22;7258;50.376;8.742;2022-09-06T13:14:22;31.00;70.80
14349;DHT22;7258;50.376;8.742;2022-09-06T13:16:29;31.00;71.40
14349;DHT22;7258;50.376;8.742;2022-09-06T13:18:35;31.00;71.30
14349;DHT22;7258;50.376;8.742;2022-09-06T13:20:38;31.10;71.10
14349;DHT22;7258;50.376;8.742;2022-09-06T13:22:44;31.20;70.70
14349;DHT22;7258;50.376;8.742;2022-09-06T13:24:48;31.30;70.30
14349;DHT22;7258;50.376;8.742;2022-09-06T13:26:53;31.30;70.30
14349;DHT22;7258;50.376;8.742;2022-09-06T13:28:56;31.30;70.30
14349;DHT22;7258;50.376;8.742;2022-09-06T13:31:05;31.40;69.90
14349;DHT22;7258;50.376;8.742;2022-09-06T13:33:21;31.40;69.20
14349;DHT22;7258;50.376;8.742;2022-09-06T13:35:26;31.40;69.20
14349;DHT22;7258;50.376;8.742;2022-09-06T13:37:32;31.20;69.20
14349;DHT22;7258;50.376;8.742;2022-09-06T13:39:38;31.10;70.70
14349;DHT22;7258;50.376;8.742;2022-09-06T13:41:41;31.10;69.80